createdAt,value
2018-02-15T00:01:54.483Z,100001.80
2018-02-15T00:04:21.970Z,100006.45
2018-02-15T00:06:49.451Z,100003.57
2018-02-15T00:09:17.022Z,99999.14
2018-02-15T00:11:44.565Z,99994.03
2018-02-15T00:14:12.025Z,100005.27
2018-02-15T00:16:39.610Z,100017.09
2018-02-15T00:19:07.169Z,100007.72
2018-02-15T00:21:34.674Z,100003.66
2018-02-15T00:24:02.148Z,100006.77
2018-02-15T00:26:29.634Z,100001.17
2018-02-15T00:28:57.093Z,99995.70
2018-02-15T00:31:24.567Z,100011.14
2018-02-15T00:33:52.079Z,100002.56
2018-02-15T00:36:19.532Z,100009.66
2018-02-15T00:38:47.176Z,99992.42
2018-02-15T00:41:14.674Z,99991.04
2018-02-15T00:43:42.140Z,100003.84
2018-02-15T00:46:09.682Z,100007.69
2018-02-15T00:48:37.142Z,100003.48
2018-02-15T00:51:04.690Z,100000.47
2018-02-15T00:53:32.163Z,100001.30
2018-02-15T00:55:59.790Z,100000.28
2018-02-15T00:58:27.312Z,99998.19
2018-02-15T01:00:54.797Z,100000.28
2018-02-15T01:03:22.262Z,99998.17
2018-02-15T01:05:49.818Z,100005.88
2018-02-15T01:08:17.286Z,100009.55
2018-02-15T01:10:44.807Z,100013.55
2018-02-15T01:13:12.266Z,100012.20
2018-02-15T01:15:39.722Z,100018.33
2018-02-15T01:18:07.186Z,100017.95
2018-02-15T01:20:34.650Z,100021.91
2018-02-15T01:23:02.154Z,100018.98
2018-02-15T01:25:29.621Z,100026.61
2018-02-15T01:27:57.096Z,100021.45
2018-02-15T01:30:24.754Z,100024.46
2018-02-15T01:32:52.239Z,100023.66
2018-02-15T01:35:19.710Z,100022.34
2018-02-15T01:37:47.247Z,100016.67
2018-02-15T01:40:14.725Z,100017.34
2018-02-15T01:42:42.253Z,100015.38
2018-02-15T01:45:09.787Z,100011.54
2018-02-15T01:47:37.263Z,100007.59
2018-02-15T01:50:04.771Z,99997.70
2018-02-15T01:52:32.251Z,100005.80
2018-02-15T01:54:59.703Z,100002.36
2018-02-15T01:57:27.172Z,99994.16
2018-02-15T01:59:54.629Z,100000.31
2018-02-15T02:02:22.092Z,100007.53
2018-02-15T02:04:49.555Z,100012.16
2018-02-15T02:07:17.040Z,100009.36
2018-02-15T02:09:44.506Z,100007.70
2018-02-15T02:12:12.062Z,100011.03
2018-02-15T02:14:39.517Z,100003.52
2018-02-15T02:17:06.987Z,100009.43
2018-02-15T02:19:34.438Z,100009.77
2018-02-15T02:22:01.894Z,100008.28
2018-02-15T02:24:29.376Z,100002.98
2018-02-15T02:26:56.907Z,100014.34
2018-02-15T02:29:24.377Z,100002.33
2018-02-15T02:31:51.843Z,100010.56
2018-02-15T02:34:19.360Z,100013.05
2018-02-15T02:36:46.884Z,100018.29
2018-02-15T02:39:14.352Z,100020.63
2018-02-15T02:41:41.844Z,100016.01
2018-02-15T02:44:09.300Z,100025.20
2018-02-15T02:46:36.755Z,100018.08
2018-02-15T02:49:04.223Z,100023.32
2018-02-15T02:51:31.704Z,100025.63
2018-02-15T02:53:59.150Z,100026.89
2018-02-15T02:56:26.637Z,100022.83
2018-02-15T02:58:54.096Z,100021.80
2018-02-15T03:01:21.586Z,100031.48
2018-02-15T03:03:49.073Z,100041.68
2018-02-15T03:06:16.540Z,100040.03
2018-02-15T03:08:44.008Z,100043.01
2018-02-15T03:11:11.475Z,100062.42
2018-02-15T03:13:38.941Z,100052.45
2018-02-15T03:16:06.444Z,100040.66
2018-02-15T03:18:33.914Z,100055.56
2018-02-15T03:21:01.465Z,100052.29
2018-02-15T03:23:28.930Z,100048.67
2018-02-15T03:25:56.385Z,100052.36
2018-02-15T03:28:23.850Z,100054.77
2018-02-15T03:30:51.303Z,100049.25
2018-02-15T03:33:18.831Z,100047.92
2018-02-15T03:35:46.311Z,100052.55
2018-02-15T03:38:13.782Z,100049.55
2018-02-15T03:40:41.658Z,100051.67
2018-02-15T03:43:09.137Z,100048.15
2018-02-15T03:45:36.599Z,100049.91
2018-02-15T03:48:04.099Z,100050.78
2018-02-15T03:50:31.579Z,100051.20
2018-02-15T03:52:59.033Z,100052.61
2018-02-15T03:55:26.522Z,100048.84
2018-02-15T03:57:53.983Z,100052.57
2018-02-15T04:00:27.225Z,100060.30
2018-02-15T04:02:54.700Z,100061.56
2018-02-15T04:05:22.184Z,100057.14
2018-02-15T04:07:49.647Z,100062.31
2018-02-15T04:10:17.152Z,100063.93
2018-02-15T04:12:44.636Z,100064.00
2018-02-15T04:15:12.150Z,100072.80
2018-02-15T04:17:39.673Z,100067.63
2018-02-15T04:20:07.146Z,100074.42
2018-02-15T04:22:34.614Z,100071.52
2018-02-15T04:25:02.070Z,100074.64
2018-02-15T04:27:29.557Z,100076.17
2018-02-15T04:29:57.027Z,100069.67
2018-02-15T04:32:24.496Z,100076.78
2018-02-15T04:34:51.971Z,100077.94
2018-02-15T04:37:19.428Z,100082.25
2018-02-15T04:39:46.907Z,100088.52
2018-02-15T04:42:14.391Z,100085.61
2018-02-15T04:44:41.855Z,100087.92
2018-02-15T04:47:09.334Z,100092.48
2018-02-15T04:49:36.791Z,100091.30
2018-02-15T04:52:04.274Z,100093.84
2018-02-15T04:54:31.751Z,100099.31
2018-02-15T04:56:59.223Z,100106.09
2018-02-15T04:59:26.714Z,100106.22
2018-02-15T05:01:54.182Z,100109.82
2018-02-15T05:04:21.665Z,100099.33
2018-02-15T05:06:49.142Z,100102.22
2018-02-15T05:09:16.673Z,100102.57
2018-02-15T05:11:44.141Z,100101.59
2018-02-15T05:14:11.675Z,100105.62
2018-02-15T05:16:39.332Z,100107.83
2018-02-15T05:19:06.827Z,100105.55
2018-02-15T05:21:34.295Z,100114.66
2018-02-15T05:24:01.753Z,100114.39
2018-02-15T05:26:29.223Z,100125.70
2018-02-15T05:28:56.703Z,100121.66
2018-02-15T05:31:25.115Z,100118.70
2018-02-15T05:33:52.627Z,100116.09
2018-02-15T05:36:20.102Z,100122.09
2018-02-15T05:38:47.706Z,100119.65
2018-02-15T05:41:15.204Z,100118.79
2018-02-15T05:43:42.675Z,100118.55
2018-02-15T05:46:10.136Z,100119.89
2018-02-15T05:48:37.644Z,100120.36
2018-02-15T05:51:05.099Z,100121.41
2018-02-15T05:53:32.591Z,100119.25
2018-02-15T05:56:00.094Z,100119.14
2018-02-15T05:58:27.560Z,100115.03
2018-02-15T06:00:55.046Z,100123.06
2018-02-15T06:03:22.519Z,100130.66
2018-02-15T06:05:49.998Z,100127.55
2018-02-15T06:08:17.483Z,100135.94
2018-02-15T06:10:44.992Z,100140.42
2018-02-15T06:13:12.466Z,100137.59
2018-02-15T06:15:39.950Z,100141.02
2018-02-15T06:18:07.407Z,100141.92
2018-02-15T06:20:34.866Z,100144.78
2018-02-15T06:23:02.356Z,100152.64
2018-02-15T06:25:30.000Z,100148.44
2018-02-15T06:27:57.474Z,100154.38
2018-02-15T06:30:26.123Z,100152.67
2018-02-15T06:32:53.615Z,100156.74
2018-02-15T06:35:21.098Z,100158.65
2018-02-15T06:37:48.595Z,100171.27
2018-02-15T06:40:16.059Z,100162.41
2018-02-15T06:42:43.708Z,100165.47
2018-02-15T06:45:11.217Z,100163.30
2018-02-15T06:47:38.682Z,100162.64
2018-02-15T06:50:06.160Z,100161.90
2018-02-15T06:52:33.622Z,100160.64
2018-02-15T06:55:01.096Z,100161.70
2018-02-15T06:57:28.567Z,100169.75
2018-02-15T06:59:56.073Z,100170.66
2018-02-15T07:02:23.560Z,100163.30
2018-02-15T07:04:51.018Z,100164.20
2018-02-15T07:07:18.510Z,100157.64
2018-02-15T07:09:45.983Z,100160.25
2018-02-15T07:12:14.284Z,100154.77
2018-02-15T07:14:41.783Z,100148.75
2018-02-15T07:17:09.272Z,100151.39
2018-02-15T07:19:36.748Z,100145.23
2018-02-15T07:22:04.240Z,100150.06
2018-02-15T07:24:31.739Z,100153.17
2018-02-15T07:26:59.239Z,100151.08
2018-02-15T07:29:26.721Z,100159.48
2018-02-15T07:31:54.211Z,100152.03
2018-02-15T07:34:21.667Z,100152.59
2018-02-15T07:36:49.158Z,100151.67
2018-02-15T07:39:16.695Z,100156.95
2018-02-15T07:41:44.172Z,100158.28
2018-02-15T07:44:11.676Z,100158.65
2018-02-15T07:46:40.423Z,100163.78
2018-02-15T07:49:07.903Z,100168.65
2018-02-15T07:51:35.386Z,100169.33
2018-02-15T07:54:03.063Z,100176.16
2018-02-15T07:56:30.615Z,100184.15
2018-02-15T07:58:58.096Z,100185.66
2018-02-15T08:01:25.593Z,100189.35
2018-02-15T08:03:53.068Z,100184.80
2018-02-15T08:06:20.532Z,100191.88
2018-02-15T08:08:48.116Z,100191.30
2018-02-15T08:11:15.619Z,100191.02
2018-02-15T08:13:43.120Z,100200.20
2018-02-15T08:16:10.595Z,100204.06
2018-02-15T08:18:38.059Z,100199.80
2018-02-15T08:21:05.561Z,100200.84
2018-02-15T08:23:33.042Z,100203.32
2018-02-15T08:26:00.522Z,100192.55
2018-02-15T08:28:27.972Z,100201.62
2018-02-15T08:30:55.426Z,100202.95
2018-02-15T08:33:22.912Z,100201.72
2018-02-15T08:35:50.413Z,100198.33
2018-02-15T08:38:17.869Z,100196.75
2018-02-15T08:40:45.354Z,100203.34
2018-02-15T08:43:12.819Z,100201.30
2018-02-15T08:45:40.287Z,100193.97
2018-02-15T08:48:07.779Z,100192.48
2018-02-15T08:50:35.300Z,100197.63
2018-02-15T08:53:02.792Z,100197.95
2018-02-15T08:55:30.271Z,100204.23
2018-02-15T08:57:57.755Z,100202.06
2018-02-15T09:00:25.345Z,100212.30
2018-02-15T09:15:50.960Z,100219.05
2018-02-15T09:18:18.442Z,100221.59
2018-02-15T09:20:46.039Z,100221.25
2018-02-15T09:23:13.515Z,100220.81
2018-02-15T09:25:41.005Z,100221.55
2018-02-15T09:28:08.487Z,100218.52
2018-02-15T09:30:36.022Z,100219.59
2018-02-15T09:33:03.567Z,100216.95
2018-02-15T09:35:31.056Z,100207.77
2018-02-15T09:37:58.507Z,100213.08
2018-02-15T09:40:25.979Z,100208.04
2018-02-15T09:42:53.431Z,100220.45
2018-02-15T09:45:20.883Z,100219.28
2018-02-15T09:47:48.378Z,100223.09
2018-02-15T09:50:15.854Z,100208.41
2018-02-15T09:52:43.415Z,100208.34
2018-02-15T09:55:10.878Z,100211.14
2018-02-15T09:57:38.360Z,100216.89
2018-02-15T10:00:05.904Z,100214.44
2018-02-15T10:02:33.355Z,100216.52
2018-02-15T10:05:00.826Z,100214.44
2018-02-15T10:07:28.354Z,100205.50
2018-02-15T10:09:55.817Z,100203.86
2018-02-15T10:12:23.293Z,100203.45
2018-02-15T10:14:51.538Z,100211.93
2018-02-15T10:17:19.119Z,100204.78
2018-02-15T10:19:46.564Z,100201.20
2018-02-15T10:22:14.041Z,100207.59
2018-02-15T10:24:41.555Z,100207.48
2018-02-15T10:27:09.039Z,100200.98
2018-02-15T10:29:36.519Z,100203.83
2018-02-15T10:32:04.002Z,100202.27
2018-02-15T10:34:31.518Z,100193.69
2018-02-15T10:36:58.979Z,100184.50
2018-02-15T10:39:26.619Z,100189.27
2018-02-15T10:41:54.094Z,100183.58
2018-02-15T10:44:21.546Z,100188.76
2018-02-15T10:46:49.034Z,100183.13
2018-02-15T10:49:16.481Z,100177.95
2018-02-15T10:51:43.967Z,100177.77
2018-02-15T10:54:11.451Z,100169.00
2018-02-15T10:56:38.983Z,100165.63
2018-02-15T10:59:06.530Z,100164.53
2018-02-15T11:01:39.545Z,100162.67
2018-02-15T11:04:12.498Z,100163.33
2018-02-15T11:06:39.984Z,100161.84
2018-02-15T11:09:07.450Z,100161.58
2018-02-15T11:11:34.902Z,100159.58
2018-02-15T11:14:02.394Z,100151.37
2018-02-15T11:16:29.888Z,100151.95
2018-02-15T11:18:57.396Z,100148.02
2018-02-15T11:21:24.926Z,100146.11
2018-02-15T11:23:52.412Z,100145.91
2018-02-15T11:26:19.897Z,100142.20
2018-02-15T11:28:47.494Z,100138.50
2018-02-15T11:31:14.954Z,100142.31
2018-02-15T11:33:42.411Z,100139.34
2018-02-15T11:36:09.911Z,100140.25
2018-02-15T11:38:37.363Z,100130.94
2018-02-15T11:41:04.876Z,100128.10
2018-02-15T11:43:32.414Z,100130.05
2018-02-15T11:45:59.911Z,100125.97
2018-02-15T11:48:27.402Z,100129.11
2018-02-15T11:50:54.926Z,100125.02
2018-02-15T11:53:22.384Z,100130.66
2018-02-15T11:55:49.888Z,100124.42
2018-02-15T11:58:17.399Z,100121.64
2018-02-15T12:00:44.893Z,100117.66
2018-02-15T12:03:13.025Z,100128.27
2018-02-15T12:05:40.479Z,100120.64
2018-02-15T12:08:08.017Z,100125.06
2018-02-15T12:10:35.498Z,100119.80
2018-02-15T12:13:02.980Z,100115.63
2018-02-15T12:15:30.505Z,100110.60
2018-02-15T12:17:57.989Z,100107.73
2018-02-15T12:20:25.448Z,100101.77
2018-02-15T12:22:52.935Z,100101.02
2018-02-15T12:25:20.399Z,100104.87
2018-02-15T12:27:47.909Z,100102.39
2018-02-15T12:30:15.394Z,100094.65
2018-02-15T12:32:42.860Z,100097.53
2018-02-15T12:35:10.364Z,100098.13
2018-02-15T12:37:37.840Z,100097.38
2018-02-15T12:40:05.311Z,100091.47
2018-02-15T12:42:32.842Z,100087.16
2018-02-15T12:45:00.358Z,100082.05
2018-02-15T12:47:27.840Z,100077.89
2018-02-15T12:49:55.319Z,100081.79
2018-02-15T12:52:22.788Z,100084.06
2018-02-15T12:54:50.270Z,100080.41
2018-02-15T12:57:17.782Z,100086.23
2018-02-15T12:59:45.251Z,100085.86
2018-02-15T13:02:12.735Z,100086.79
2018-02-15T13:04:40.296Z,100085.82
2018-02-15T13:07:07.806Z,100084.64
2018-02-15T13:09:35.332Z,100086.80
2018-02-15T13:12:02.840Z,100082.61
2018-02-15T13:14:30.316Z,100074.67
2018-02-15T13:16:57.833Z,100075.43
2018-02-15T13:19:37.130Z,100069.90
2018-02-15T13:22:07.241Z,100072.57
2018-02-15T13:24:34.719Z,100073.94
2018-02-15T13:27:02.273Z,100078.27
2018-02-15T13:29:29.764Z,100084.63
2018-02-15T13:31:57.275Z,100089.75
2018-02-15T13:34:24.787Z,100087.55
2018-02-15T13:36:52.321Z,100087.58
2018-02-15T13:39:19.888Z,100089.67
2018-02-15T13:41:47.377Z,100087.59
2018-02-15T13:44:14.871Z,100079.55
2018-02-15T13:46:42.400Z,100082.92
2018-02-15T13:49:09.868Z,100080.67
2018-02-15T13:51:37.360Z,100076.08
2018-02-15T13:54:04.847Z,100076.02
2018-02-15T13:56:32.340Z,100067.69
2018-02-15T13:58:59.860Z,100067.73
2018-02-15T14:01:27.424Z,100070.70
2018-02-15T14:03:54.900Z,100067.72
2018-02-15T14:06:23.303Z,100067.59
2018-02-15T14:08:50.811Z,100070.98
2018-02-15T14:11:18.316Z,100063.67
2018-02-15T14:13:45.803Z,100061.53
2018-02-15T14:16:13.319Z,100060.27
2018-02-15T14:18:40.804Z,100056.37
2018-02-15T14:21:08.279Z,100062.66
2018-02-15T14:23:35.765Z,100059.30
2018-02-15T14:26:03.243Z,100065.36
2018-02-15T14:28:30.706Z,100067.56
2018-02-15T14:30:58.208Z,100062.86
2018-02-15T14:33:25.698Z,100063.28
2018-02-15T14:35:53.183Z,100069.30
2018-02-15T14:38:20.708Z,100060.31
2018-02-15T14:40:48.269Z,100062.06
2018-02-15T14:43:15.727Z,100057.83
2018-02-15T14:45:43.219Z,100059.41
2018-02-15T14:48:10.687Z,100058.55
2018-02-15T14:50:38.177Z,100054.68
2018-02-15T14:53:05.703Z,100060.14
2018-02-15T14:55:33.183Z,100054.07
2018-02-15T14:58:00.644Z,100052.70
2018-02-15T15:00:28.146Z,100047.91
2018-02-15T15:02:55.668Z,100049.12
2018-02-15T15:05:23.137Z,100058.22
2018-02-15T15:07:50.648Z,100058.34
2018-02-15T15:10:18.200Z,100065.42
2018-02-15T15:12:45.826Z,100063.58
2018-02-15T15:15:14.364Z,100063.02
2018-02-15T15:17:41.855Z,100065.81
2018-02-15T15:20:09.355Z,100066.72
2018-02-15T15:22:36.836Z,100075.45
2018-02-15T15:25:04.358Z,100072.28
2018-02-15T15:27:31.898Z,100072.95
2018-02-15T15:29:59.387Z,100065.70
2018-02-15T15:32:26.868Z,100062.12
2018-02-15T15:34:54.348Z,100063.19
2018-02-15T15:37:21.830Z,100062.85
2018-02-15T15:39:49.317Z,100068.24
2018-02-15T15:42:16.827Z,100067.94
2018-02-15T15:44:44.337Z,100069.08
2018-02-15T15:47:11.798Z,100063.73
2018-02-15T15:49:39.286Z,100062.13
2018-02-15T15:52:06.788Z,100069.52
2018-02-15T15:54:34.262Z,100072.67
2018-02-15T15:57:01.737Z,100078.02
2018-02-15T15:59:29.227Z,100077.14
2018-02-15T16:01:56.694Z,100078.61
2018-02-15T16:04:24.176Z,100089.59
2018-02-15T16:06:51.660Z,100092.72
2018-02-15T16:09:19.498Z,100097.22
2018-02-15T16:11:47.030Z,100100.90
2018-02-15T16:14:14.504Z,100099.83
2018-02-15T16:16:41.988Z,100104.95
2018-02-15T16:19:09.489Z,100107.08
2018-02-15T16:21:36.992Z,100119.11
2018-02-15T16:24:04.461Z,100114.66
2018-02-15T16:26:31.959Z,100112.72
2018-02-15T16:28:59.423Z,100109.55
2018-02-15T16:31:26.907Z,100114.77
2018-02-15T16:33:54.483Z,100120.44
2018-02-15T16:36:21.961Z,100120.65
2018-02-15T16:38:49.474Z,100126.85
2018-02-15T16:41:16.951Z,100126.80
2018-02-15T16:43:44.404Z,100125.11
2018-02-15T16:46:11.912Z,100120.83
2018-02-15T16:48:39.452Z,100125.48
2018-02-15T16:51:06.989Z,100126.72
2018-02-15T16:53:34.455Z,100129.02
2018-02-15T16:56:01.941Z,100125.23
2018-02-15T16:58:29.446Z,100130.41
2018-02-15T17:00:56.929Z,100125.25
2018-02-15T17:03:24.475Z,100134.38
2018-02-15T17:05:51.996Z,100138.03
2018-02-15T17:08:19.456Z,100132.37
2018-02-15T17:10:46.929Z,100133.23
2018-02-15T17:13:14.426Z,100133.52
2018-02-15T17:15:41.894Z,100136.33
2018-02-15T17:18:09.379Z,100138.80
2018-02-15T17:20:36.852Z,100135.87
2018-02-15T17:23:04.317Z,100133.31
2018-02-15T17:25:31.790Z,100130.33
2018-02-15T17:27:59.262Z,100126.12
2018-02-15T17:30:26.731Z,100131.66
2018-02-15T17:32:54.237Z,100141.20
2018-02-15T17:35:21.718Z,100133.11
2018-02-15T17:37:49.173Z,100135.14
2018-02-15T17:40:16.635Z,100133.49
2018-02-15T17:42:44.432Z,100132.26
2018-02-15T17:45:11.893Z,100134.61
2018-02-15T17:47:39.367Z,100127.52
2018-02-15T17:50:06.824Z,100128.30
2018-02-15T17:52:34.457Z,100129.96
2018-02-15T17:55:01.941Z,100130.64
2018-02-15T17:57:29.422Z,100131.91
2018-02-15T17:59:56.895Z,100129.50
2018-02-15T18:02:24.359Z,100127.78
2018-02-15T18:04:51.816Z,100122.98
2018-02-15T18:07:19.279Z,100124.34
2018-02-15T18:09:46.780Z,100112.89
2018-02-15T18:12:14.282Z,100112.47
2018-02-15T18:14:41.731Z,100116.97
2018-02-15T18:17:09.232Z,100115.22
2018-02-15T18:19:36.691Z,100121.90
2018-02-15T18:22:04.176Z,100131.11
2018-02-15T18:24:31.681Z,100125.66
2018-02-15T18:26:59.139Z,100129.67
2018-02-15T18:29:26.607Z,100122.02
2018-02-15T18:31:54.078Z,100125.09
2018-02-15T18:34:21.544Z,100119.06
2018-02-15T18:36:49.016Z,100116.42
2018-02-15T18:39:16.616Z,100117.05
2018-02-15T18:41:44.085Z,100119.86
2018-02-15T18:44:11.554Z,100116.20
2018-02-15T18:46:39.076Z,100112.09
2018-02-15T18:49:06.527Z,100113.34
2018-02-15T18:51:33.992Z,100114.59
2018-02-15T18:54:01.451Z,100108.86
2018-02-15T18:56:28.919Z,100111.51
2018-02-15T18:58:56.394Z,100112.58
2018-02-15T19:01:23.894Z,100111.69
2018-02-15T19:03:51.352Z,100103.91
2018-02-15T19:06:18.815Z,100096.25
2018-02-15T19:08:46.331Z,100090.63
2018-02-15T19:11:13.784Z,100089.11
2018-02-15T19:13:41.265Z,100090.88
2018-02-15T19:16:08.774Z,100090.83
2018-02-15T19:18:36.361Z,100085.99
2018-02-15T19:21:03.824Z,100085.67
2018-02-15T19:23:31.310Z,100081.77
2018-02-15T19:25:58.773Z,100080.35
2018-02-15T19:28:26.263Z,100084.09
2018-02-15T19:30:53.730Z,100080.27
2018-02-15T19:33:21.216Z,100084.57
2018-02-15T19:35:48.681Z,100085.02
2018-02-15T19:38:16.147Z,100082.48
2018-02-15T19:40:43.707Z,100083.63
2018-02-15T19:43:11.241Z,100077.93
2018-02-15T19:45:38.836Z,100064.37
2018-02-15T19:48:06.308Z,100075.16
2018-02-15T19:50:33.802Z,100085.97
2018-02-15T19:53:01.273Z,100081.62
2018-02-15T19:55:28.808Z,100082.36
2018-02-15T19:57:56.973Z,100083.58
2018-02-15T20:00:24.724Z,100089.88
2018-02-15T20:02:52.312Z,100092.92
2018-02-15T20:05:19.778Z,100087.76
2018-02-15T20:07:47.251Z,100084.78
2018-02-15T20:10:14.776Z,100077.67
2018-02-15T20:12:42.366Z,100078.55
2018-02-15T20:15:09.912Z,100083.78
2018-02-15T20:17:37.360Z,100077.92
2018-02-15T20:20:10.416Z,100081.72
2018-02-15T20:22:38.925Z,100077.61
2018-02-15T20:25:06.459Z,100076.41
2018-02-15T20:27:39.647Z,100072.16
2018-02-15T20:30:07.222Z,100078.18
2018-02-15T20:32:34.801Z,100084.89
2018-02-15T20:35:02.351Z,100077.91
2018-02-15T20:37:35.421Z,100085.91
2018-02-15T20:40:08.695Z,100085.05
2018-02-15T20:42:36.275Z,100090.53
2018-02-15T20:45:03.834Z,100081.27
2018-02-15T20:47:31.418Z,100083.44
2018-02-15T20:50:04.406Z,100083.52
2018-02-15T20:52:37.415Z,100089.92
2018-02-15T20:55:10.591Z,100098.80
2018-02-15T20:57:38.068Z,100087.37
2018-02-15T21:00:05.522Z,100092.02
2018-02-15T21:02:32.971Z,100094.91
2018-02-15T21:05:00.446Z,100087.95
2018-02-15T21:07:27.911Z,100088.22
2018-02-15T21:09:55.403Z,100086.86
2018-02-15T21:12:22.893Z,100080.03
2018-02-15T21:14:50.388Z,100079.36
2018-02-15T21:17:17.876Z,100083.92
2018-02-15T21:19:45.323Z,100083.84
2018-02-15T21:22:12.794Z,100084.57
2018-02-15T21:24:40.397Z,100101.33
2018-02-15T21:27:07.865Z,100095.09
2018-02-15T21:29:35.331Z,100108.50
2018-02-15T21:32:02.819Z,100106.89
2018-02-15T21:34:30.279Z,100097.08
2018-02-15T21:36:58.553Z,100100.73
2018-02-15T21:39:26.122Z,100093.19
2018-02-15T21:41:53.597Z,100094.50
2018-02-15T21:44:21.067Z,100096.84
2018-02-15T21:46:48.586Z,100091.36
2018-02-15T21:49:16.082Z,100095.95
2018-02-15T21:51:43.577Z,100092.23
2018-02-15T21:54:11.036Z,100094.41
2018-02-15T21:56:38.522Z,100086.08
2018-02-15T21:59:05.991Z,100087.14
2018-02-15T22:01:33.465Z,100086.12
2018-02-15T22:04:00.956Z,100086.58
2018-02-15T22:06:28.602Z,100081.98
2018-02-15T22:08:56.079Z,100086.59
2018-02-15T22:11:23.620Z,100093.30
2018-02-15T22:13:51.094Z,100100.04
2018-02-15T22:16:18.580Z,100096.70
2018-02-15T22:18:46.044Z,100101.73
2018-02-15T22:21:13.521Z,100103.39
2018-02-15T22:23:40.991Z,100095.50
2018-02-15T22:26:08.458Z,100090.29
2018-02-15T22:28:35.949Z,100088.11
2018-02-15T22:31:03.395Z,100088.80
2018-02-15T22:33:30.886Z,100092.33
2018-02-15T22:35:58.373Z,100089.29
2018-02-15T22:38:25.892Z,100091.67
2018-02-15T22:40:53.371Z,100087.11
2018-02-15T22:43:20.825Z,100082.92
2018-02-15T22:45:48.295Z,100081.61
2018-02-15T22:48:15.751Z,100082.33
2018-02-15T22:50:43.446Z,100084.22
2018-02-15T22:53:10.912Z,100087.06
2018-02-15T22:55:38.387Z,100082.94
2018-02-15T22:58:05.873Z,100079.09
2018-02-15T23:00:33.335Z,100072.44
2018-02-15T23:03:00.798Z,100070.72
2018-02-15T23:05:28.332Z,100069.14
2018-02-15T23:07:55.803Z,100078.34
2018-02-15T23:10:23.282Z,100069.89
2018-02-15T23:12:50.752Z,100059.47
2018-02-15T23:15:18.827Z,100063.74
2018-02-15T23:17:46.291Z,100056.75
2018-02-15T23:20:13.762Z,100062.86
2018-02-15T23:22:41.231Z,100073.67
2018-02-15T23:25:08.699Z,100080.04
2018-02-15T23:27:36.155Z,100075.91
2018-02-15T23:30:03.723Z,100075.66
2018-02-15T23:32:31.174Z,100060.19
2018-02-15T23:34:58.659Z,100063.74
2018-02-15T23:37:26.123Z,100066.43
2018-02-15T23:39:53.612Z,100066.95
2018-02-15T23:42:21.123Z,100080.27
2018-02-15T23:44:48.767Z,100075.20
2018-02-15T23:47:16.222Z,100067.44
2018-02-15T23:49:43.682Z,100073.38
2018-02-15T23:52:11.276Z,100065.36
2018-02-15T23:54:38.762Z,100053.70
2018-02-15T23:57:06.223Z,100056.66
2018-02-15T23:59:33.687Z,100047.06
